Time,TemperatureF,DewpointF,PressureIn,WindDirection,WindDirectionDegrees,WindSpeedMPH,WindSpeedGustMPH,Humidity,HourlyPrecipIn,Conditions,Clouds,dailyrainin,SoftwareType,DateUTC
2013-02-10 00:10:00,68.4,64.0,29.68,South,181,6.0,15.0,85,0.00,,,0.00,weatherlink.com 1.10,2013-02-10 06:10:00,
2013-02-10 00:25:00,67.7,64.0,29.68,South,191,11.0,14.0,87,0.00,,,0.00,weatherlink.com 1.10,2013-02-10 06:25:00,
2013-02-10 00:40:00,67.6,64.0,29.66,South,176,12.0,20.0,87,0.00,,,0.00,weatherlink.com 1.10,2013-02-10 06:40:00,
2013-02-10 00:55:00,67.2,64.0,29.65,SSE,160,12.0,18.0,89,0.02,,,0.02,weatherlink.com 1.10,2013-02-10 06:55:00,
2013-02-10 01:10:00,66.7,62.0,29.64,SSW,208,11.0,31.0,85,0.04,,,0.04,weatherlink.com 1.10,2013-02-10 07:10:00,
2013-02-10 01:25:00,59.8,53.0,29.64,SSE,167,6.0,16.0,79,0.04,,,0.04,weatherlink.com 1.10,2013-02-10 07:25:00,
2013-02-10 01:40:00,61.9,58.0,29.63,South,188,13.0,17.0,87,0.04,,,0.04,weatherlink.com 1.10,2013-02-10 07:40:00,
2013-02-10 01:55:00,67.0,62.0,29.64,SSW,210,11.0,22.0,85,0.02,,,0.04,weatherlink.com 1.10,2013-02-10 07:55:00,
2013-02-10 02:10:00,67.6,55.0,29.64,SSW,196,5.0,19.0,65,0.00,,,0.04,weatherlink.com 1.10,2013-02-10 08:10:00,
2013-02-10 02:25:00,64.1,56.0,29.65,South,182,10.0,19.0,75,0.00,,,0.04,weatherlink.com 1.10,2013-02-10 08:25:00,
2013-02-10 02:40:00,62.3,57.0,29.66,SSW,194,9.0,15.0,83,0.00,,,0.04,weatherlink.com 1.10,2013-02-10 08:40:00,
2013-02-10 02:55:00,62.0,58.0,29.67,SSW,204,7.0,10.0,86,0.00,,,0.00,weatherlink.com 1.10,2013-02-10 08:55:00,
2013-02-10 03:10:00,61.8,57.0,29.70,WNW,294,0.0,9.0,85,0.00,,,0.00,weatherlink.com 1.10,2013-02-10 09:10:00,
2013-02-10 03:25:00,63.8,55.0,29.73,NNW,339,3.0,17.0,73,0.00,,,0.00,weatherlink.com 1.10,2013-02-10 09:25:00,
2013-02-10 03:40:00,61.4,55.0,29.74,WNW,301,8.0,11.0,79,0.00,,,0.00,weatherlink.com 1.10,2013-02-10 09:40:00,
2013-02-10 03:55:00,56.9,51.0,29.76,WNW,286,6.0,11.0,80,0.08,,,0.08,weatherlink.com 1.10,2013-02-10 09:55:00,
2013-02-10 04:10:00,52.7,47.0,29.76,NNW,343,3.0,8.0,81,0.15,,,0.15,weatherlink.com 1.10,2013-02-10 10:10:00,
2013-02-10 04:26:00,50.7,46.0,29.77,NW,311,1.0,5.0,83,0.19,,,0.19,weatherlink.com 1.10,2013-02-10 10:26:00,
2013-02-10 04:40:00,50.1,46.0,29.76,NW,311,0.0,4.0,86,0.19,,,0.19,weatherlink.com 1.10,2013-02-10 10:40:00,
2013-02-10 04:55:00,49.6,46.0,29.78,NW,311,0.0,3.0,88,0.11,,,0.19,weatherlink.com 1.10,2013-02-10 10:55:00,
2013-02-10 05:10:00,49.5,46.0,29.78,NW,311,0.0,3.0,89,0.03,,,0.19,weatherlink.com 1.10,2013-02-10 11:10:00,
2013-02-10 05:25:00,49.4,46.0,29.80,NW,311,0.0,2.0,88,0.00,,,0.19,weatherlink.com 1.10,2013-02-10 11:25:00,
2013-02-10 05:40:00,49.3,46.0,29.79,NW,311,0.0,2.0,88,0.00,,,0.19,weatherlink.com 1.10,2013-02-10 11:40:00,
2013-02-10 05:55:00,49.2,46.0,29.80,NW,311,0.0,1.0,89,0.00,,,0.19,weatherlink.com 1.10,2013-02-10 11:55:00,
2013-02-10 06:11:00,49.4,46.0,29.79,NW,311,0.0,1.0,88,0.00,,,0.19,weatherlink.com 1.10,2013-02-10 12:11:00,
2013-02-10 06:25:00,49.3,46.0,29.80,NW,311,1.0,2.0,87,0.00,,,0.19,weatherlink.com 1.10,2013-02-10 12:25:00,
2013-02-10 06:40:00,49.6,45.0,29.81,NW,311,0.0,1.0,85,0.00,,,0.19,weatherlink.com 1.10,2013-02-10 12:40:00,
2013-02-10 06:55:00,50.2,45.0,29.82,NW,311,0.0,1.0,82,0.00,,,0.19,weatherlink.com 1.10,2013-02-10 12:55:00,
2013-02-10 07:10:00,50.3,45.0,29.83,NW,311,0.0,1.0,82,0.00,,,0.19,weatherlink.com 1.10,2013-02-10 13:10:00,
2013-02-10 07:26:00,50.7,44.0,29.83,NW,311,0.0,2.0,79,0.00,,,0.19,weatherlink.com 1.10,2013-02-10 13:26:00,
2013-02-10 07:40:00,51.2,45.0,29.83,NW,311,0.0,4.0,78,0.00,,,0.19,weatherlink.com 1.10,2013-02-10 13:40:00,
2013-02-10 07:56:00,52.0,44.0,29.84,NW,306,1.0,5.0,73,0.00,,,0.19,weatherlink.com 1.10,2013-02-10 13:56:00,
2013-02-10 08:11:00,52.2,43.0,29.84,NW,306,0.0,2.0,72,0.00,,,0.19,weatherlink.com 1.10,2013-02-10 14:11:00,
2013-02-10 08:26:00,52.2,43.0,29.85,NW,306,0.0,2.0,72,0.00,,,0.19,weatherlink.com 1.10,2013-02-10 14:26:00,
2013-02-10 08:41:00,52.5,43.0,29.86,NW,306,0.0,2.0,70,0.00,,,0.19,weatherlink.com 1.10,2013-02-10 14:41:00,
2013-02-10 08:56:00,53.0,41.0,29.86,NW,306,1.0,4.0,65,0.00,,,0.19,weatherlink.com 1.10,2013-02-10 14:56:00,
2013-02-10 09:11:00,53.7,40.0,29.87,NW,306,0.0,3.0,61,0.00,,,0.19,weatherlink.com 1.10,2013-02-10 15:11:00,
2013-02-10 09:26:00,54.4,39.0,29.88,NW,306,1.0,5.0,57,0.00,,,0.19,weatherlink.com 1.10,2013-02-10 15:26:00,
2013-02-10 09:41:00,55.0,37.0,29.89,NW,306,0.0,4.0,52,0.00,,,0.19,weatherlink.com 1.10,2013-02-10 15:41:00,
2013-02-10 09:56:00,55.6,35.0,29.88,NW,315,1.0,5.0,47,0.00,,,0.19,weatherlink.com 1.10,2013-02-10 15:56:00,
2013-02-10 10:11:00,56.1,34.0,29.89,NW,310,0.0,5.0,44,0.00,,,0.19,weatherlink.com 1.10,2013-02-10 16:11:00,
2013-02-10 10:26:00,56.8,34.0,29.89,NW,323,1.0,4.0,43,0.00,,,0.19,weatherlink.com 1.10,2013-02-10 16:26:00,
2013-02-10 10:41:00,57.6,33.0,29.89,WNW,285,1.0,6.0,40,0.00,,,0.19,weatherlink.com 1.10,2013-02-10 16:41:00,
2013-02-10 10:56:00,59.0,30.0,29.90,WNW,284,2.0,9.0,33,0.00,,,0.19,weatherlink.com 1.10,2013-02-10 16:56:00,
2013-02-10 11:14:00,60.7,31.0,29.89,NW,325,2.0,8.0,33,0.00,,,0.19,weatherlink.com 1.10,2013-02-10 17:14:00,
2013-02-10 11:26:00,60.5,31.0,29.89,WNW,300,0.0,8.0,33,0.00,,,0.19,weatherlink.com 1.10,2013-02-10 17:26:00,
2013-02-10 11:41:00,61.1,31.0,29.89,North,355,5.0,10.0,32,0.00,,,0.19,weatherlink.com 1.10,2013-02-10 17:41:00,
2013-02-10 11:56:00,61.5,29.0,29.89,NNW,343,5.0,8.0,29,0.00,,,0.19,weatherlink.com 1.10,2013-02-10 17:56:00,
2013-02-10 12:11:00,61.0,28.0,29.88,NNW,348,1.0,6.0,29,0.00,,,0.19,weatherlink.com 1.10,2013-02-10 18:11:00,
2013-02-10 12:26:00,62.4,28.0,29.87,North,355,2.0,8.0,27,0.00,,,0.19,weatherlink.com 1.10,2013-02-10 18:26:00,
2013-02-10 12:41:00,62.3,27.0,29.86,North,355,2.0,7.0,26,0.00,,,0.19,weatherlink.com 1.10,2013-02-10 18:41:00,
2013-02-10 12:56:00,63.1,28.0,29.86,North,355,5.0,5.0,27,0.00,,,0.19,weatherlink.com 1.10,2013-02-10 18:56:00,
2013-02-10 13:11:00,63.4,29.0,29.85,NW,321,2.0,8.0,27,0.00,,,0.19,weatherlink.com 1.10,2013-02-10 19:11:00,
2013-02-10 13:26:00,64.4,29.0,29.84,West,277,2.0,7.0,26,0.00,,,0.19,weatherlink.com 1.10,2013-02-10 19:26:00,
2013-02-10 13:41:00,65.2,28.0,29.84,North,5,3.0,7.0,25,0.00,,,0.19,weatherlink.com 1.10,2013-02-10 19:41:00,
2013-02-10 13:57:00,65.0,26.0,29.83,NNW,333,1.0,6.0,23,0.00,,,0.19,weatherlink.com 1.10,2013-02-10 19:57:00,
2013-02-10 14:12:00,65.4,27.0,29.83,NW,318,0.0,6.0,23,0.00,,,0.19,weatherlink.com 1.10,2013-02-10 20:12:00,
2013-02-10 14:26:00,65.1,27.0,29.83,WNW,294,3.0,6.0,24,0.00,,,0.19,weatherlink.com 1.10,2013-02-10 20:26:00,
2013-02-10 14:41:00,65.3,26.0,29.82,NNW,344,3.0,7.0,23,0.00,,,0.19,weatherlink.com 1.10,2013-02-10 20:41:00,
2013-02-10 14:56:00,65.6,27.0,29.82,North,355,0.0,5.0,23,0.00,,,0.19,weatherlink.com 1.10,2013-02-10 20:56:00,
2013-02-10 15:11:00,66.0,28.0,29.81,North,9,0.0,4.0,24,0.00,,,0.19,weatherlink.com 1.10,2013-02-10 21:11:00,
2013-02-10 15:26:00,66.2,27.0,29.82,North,355,1.0,7.0,23,0.00,,,0.19,weatherlink.com 1.10,2013-02-10 21:26:00,
2013-02-10 15:41:00,66.9,28.0,29.82,North,350,1.0,7.0,23,0.00,,,0.19,weatherlink.com 1.10,2013-02-10 21:41:00,
2013-02-10 15:57:00,66.3,26.0,29.82,North,360,2.0,7.0,22,0.00,,,0.19,weatherlink.com 1.10,2013-02-10 21:57:00,
2013-02-10 16:11:00,66.2,27.0,29.82,North,360,2.0,8.0,23,0.00,,,0.19,weatherlink.com 1.10,2013-02-10 22:11:00,
2013-02-10 16:26:00,66.3,30.0,29.83,NNW,333,0.0,5.0,26,0.00,,,0.19,weatherlink.com 1.10,2013-02-10 22:26:00,
2013-02-10 16:41:00,65.6,30.0,29.83,North,350,0.0,7.0,26,0.00,,,0.19,weatherlink.com 1.10,2013-02-10 22:41:00,
2013-02-10 16:56:00,65.0,28.0,29.83,North,355,1.0,4.0,25,0.00,,,0.19,weatherlink.com 1.10,2013-02-10 22:56:00,
2013-02-10 17:11:00,65.7,28.0,29.84,North,355,0.0,2.0,24,0.00,,,0.19,weatherlink.com 1.10,2013-02-10 23:11:00,
2013-02-10 17:27:00,65.0,30.0,29.84,North,360,0.0,5.0,27,0.00,,,0.19,weatherlink.com 1.10,2013-02-10 23:27:00,
2013-02-10 17:42:00,64.2,30.0,29.84,North,360,0.0,2.0,28,0.00,,,0.19,weatherlink.com 1.10,2013-02-10 23:42:00,
2013-02-10 17:57:00,63.4,31.0,29.84,North,360,0.0,1.0,30,0.00,,,0.19,weatherlink.com 1.10,2013-02-10 23:57:00,
2013-02-10 18:11:00,62.3,31.0,29.85,North,360,0.0,2.0,31,0.00,,,0.19,weatherlink.com 1.10,2013-02-11 00:11:00,
2013-02-10 18:26:00,61.1,34.0,29.85,North,360,0.0,0.0,36,0.00,,,0.19,weatherlink.com 1.10,2013-02-11 00:26:00,
2013-02-10 18:41:00,59.9,31.0,29.86,North,360,0.0,0.0,34,0.00,,,0.19,weatherlink.com 1.10,2013-02-11 00:41:00,
2013-02-10 18:56:00,59.3,31.0,29.86,North,360,0.0,1.0,34,0.00,,,0.19,weatherlink.com 1.10,2013-02-11 00:56:00,
2013-02-10 19:11:00,58.3,34.0,29.87,North,360,0.0,0.0,40,0.00,,,0.19,weatherlink.com 1.10,2013-02-11 01:11:00,
2013-02-10 19:26:00,57.7,32.0,29.87,North,360,0.0,0.0,38,0.00,,,0.19,weatherlink.com 1.10,2013-02-11 01:26:00,
2013-02-10 19:41:00,57.0,35.0,29.88,North,360,0.0,0.0,44,0.00,,,0.19,weatherlink.com 1.10,2013-02-11 01:41:00,
2013-02-10 19:57:00,56.5,34.0,29.87,North,360,0.0,0.0,43,0.00,,,0.19,weatherlink.com 1.10,2013-02-11 01:57:00,
2013-02-10 20:11:00,55.8,35.0,29.87,North,360,0.0,0.0,46,0.00,,,0.19,weatherlink.com 1.10,2013-02-11 02:11:00,
2013-02-10 20:26:00,55.4,34.0,29.87,North,360,0.0,0.0,44,0.00,,,0.19,weatherlink.com 1.10,2013-02-11 02:26:00,
2013-02-10 20:42:00,55.4,42.0,29.89,North,360,0.0,0.0,61,0.00,,,0.19,weatherlink.com 1.10,2013-02-11 02:42:00,
2013-02-10 20:56:00,55.3,34.0,29.89,North,360,0.0,0.0,44,0.00,,,0.19,weatherlink.com 1.10,2013-02-11 02:56:00,
2013-02-10 21:11:00,55.2,42.0,29.89,North,360,0.0,0.0,62,0.00,,,0.19,weatherlink.com 1.10,2013-02-11 03:11:00,
2013-02-10 21:27:00,54.7,41.0,29.91,North,360,0.0,1.0,61,0.00,,,0.19,weatherlink.com 1.10,2013-02-11 03:27:00,
2013-02-10 21:42:00,54.8,41.0,29.91,North,360,0.0,1.0,59,0.00,,,0.19,weatherlink.com 1.10,2013-02-11 03:42:00,
2013-02-10 21:57:00,54.6,40.0,29.91,North,360,0.0,3.0,58,0.00,,,0.19,weatherlink.com 1.10,2013-02-11 03:57:00,
2013-02-10 22:12:00,54.8,40.0,29.92,North,360,1.0,3.0,57,0.00,,,0.19,weatherlink.com 1.10,2013-02-11 04:12:00,
2013-02-10 22:27:00,55.0,38.0,29.92,North,360,0.0,1.0,54,0.00,,,0.19,weatherlink.com 1.10,2013-02-11 04:27:00,
2013-02-10 22:42:00,55.0,38.0,29.93,North,360,3.0,3.0,54,0.00,,,0.19,weatherlink.com 1.10,2013-02-11 04:42:00,
2013-02-10 22:57:00,55.1,39.0,29.93,North,360,2.0,3.0,54,0.00,,,0.19,weatherlink.com 1.10,2013-02-11 04:57:00,
2013-02-10 23:12:00,54.9,39.0,29.93,North,360,3.0,4.0,55,0.00,,,0.19,weatherlink.com 1.10,2013-02-11 05:12:00,
2013-02-10 23:27:00,54.8,38.0,29.94,North,360,0.0,3.0,54,0.00,,,0.19,weatherlink.com 1.10,2013-02-11 05:27:00,
2013-02-10 23:42:00,54.9,39.0,29.95,North,360,1.0,3.0,55,0.00,,,0.19,weatherlink.com 1.10,2013-02-11 05:42:00,
2013-02-10 23:57:00,55.0,38.0,29.95,North,360,0.0,2.0,54,0.00,,,0.19,weatherlink.com 1.10,2013-02-11 05:57:00,